PWSweather.com
Personal Weather Stations
Station Observations
IMAZOWIE6
WarszawaPL

WarszawaPL

Lat: 52.27957, Lon: 21.05489

Elevation: 100

Station Type: WS1080

http://stacjapogody.waw.pl/

High Low Average
Temperature 57.0°F13.9°C 32.5°F0.3°C 47.0°F8.3°C
Dew Point -167.1°F-110.6°C -169.5°F-111.9°C -168.1°F-111.2°C
Winds 4.8 mph 7.7 kmh Calm Calm 2.0 mph N3.2 kmh N
Wind Gusts 10.2 mph16.4 kmh 1.4 mph2.3 kmh 5.0 mph8.0 kmh
Humidity - - -
Pressure 29.94 in1013.9 mb 29.41 in995.9 mb -
Precipitation 0.00 in0.0 mm - -
Hour Temp Dew Point Humidity Winds Wind Gusts Pressure Precip Precip Rate Daily Precip Total
12:06 AM 35.6°F2.0°C -169.2°F-111.8°C - 0.6 mph N1.0 kmh N 2.0 mph3.2 kmh 29.94 in1013.9 mb 0.00 in0.0 mm 0.00 in0.0 mm 0.00 in0.0 mm
12:21 AM 34.5°F1.4°C -169.3°F-111.8°C - Calm Calm 1.4 mph2.3 kmh 29.93 in1013.5 mb 0.00 in0.0 mm 0.00 in0.0 mm 0.00 in0.0 mm
12:36 AM 33.8°F1.0°C -169.4°F-111.9°C - Calm Calm 1.4 mph2.3 kmh 29.93 in1013.5 mb 0.00 in0.0 mm 0.00 in0.0 mm 0.00 in0.0 mm
12:51 AM 33.4°F0.8°C -169.5°F-111.9°C - 0.6 mph N1.0 kmh N 1.4 mph2.3 kmh 29.92 in1013.2 mb 0.00 in0.0 mm 0.00 in0.0 mm 0.00 in0.0 mm
01:06 AM 33.1°F0.6°C -169.5°F-111.9°C - Calm Calm 1.4 mph2.3 kmh 29.92 in1013.2 mb 0.00 in0.0 mm 0.00 in0.0 mm 0.00 in0.0 mm
01:21 AM 33.1°F0.6°C -169.5°F-111.9°C - 1.4 mph N2.3 kmh N 2.8 mph4.5 kmh 29.92 in1013.2 mb 0.00 in0.0 mm 0.00 in0.0 mm 0.00 in0.0 mm
01:36 AM 33.3°F0.7°C -169.5°F-111.9°C - Calm Calm 2.0 mph3.2 kmh 29.91 in1012.9 mb 0.00 in0.0 mm 0.00 in0.0 mm 0.00 in0.0 mm
01:51 AM 33.4°F0.8°C -169.5°F-111.9°C - Calm Calm 1.4 mph2.3 kmh 29.91 in1012.9 mb 0.00 in0.0 mm 0.00 in0.0 mm 0.00 in0.0 mm
02:06 AM 33.3°F0.7°C -169.5°F-111.9°C - Calm Calm 2.0 mph3.2 kmh 29.91 in1012.9 mb 0.00 in0.0 mm 0.00 in0.0 mm 0.00 in0.0 mm
02:21 AM 32.9°F0.5°C -169.5°F-111.9°C - 0.6 mph N1.0 kmh N 2.0 mph3.2 kmh 29.90 in1012.5 mb 0.00 in0.0 mm 0.00 in0.0 mm 0.00 in0.0 mm
02:36 AM 32.5°F0.3°C -169.5°F-111.9°C - Calm Calm 2.0 mph3.2 kmh 29.90 in1012.5 mb 0.00 in0.0 mm 0.00 in0.0 mm 0.00 in0.0 mm
02:51 AM 32.5°F0.3°C -169.5°F-111.9°C - 0.6 mph N1.0 kmh N 2.8 mph4.5 kmh 29.89 in1012.2 mb 0.00 in0.0 mm 0.00 in0.0 mm 0.00 in0.0 mm
03:06 AM 32.7°F0.4°C -169.5°F-111.9°C - 1.4 mph N2.3 kmh N 2.8 mph4.5 kmh 29.89 in1012.2 mb 0.00 in0.0 mm 0.00 in0.0 mm 0.00 in0.0 mm
03:21 AM 32.7°F0.4°C -169.5°F-111.9°C - 1.4 mph N2.3 kmh N 3.4 mph5.5 kmh 29.88 in1011.9 mb 0.00 in0.0 mm 0.00 in0.0 mm 0.00 in0.0 mm
03:36 AM 33.1°F0.6°C -169.5°F-111.9°C - 0.6 mph N1.0 kmh N 2.0 mph3.2 kmh 29.87 in1011.5 mb 0.00 in0.0 mm 0.00 in0.0 mm 0.00 in0.0 mm
03:51 AM 32.9°F0.5°C -169.5°F-111.9°C - 0.6 mph N1.0 kmh N 2.0 mph3.2 kmh 29.87 in1011.5 mb 0.00 in0.0 mm 0.00 in0.0 mm 0.00 in0.0 mm
04:06 AM 32.7°F0.4°C -169.5°F-111.9°C - 2.0 mph N3.2 kmh N 3.4 mph5.5 kmh 29.87 in1011.5 mb 0.00 in0.0 mm 0.00 in0.0 mm 0.00 in0.0 mm
04:21 AM 32.5°F0.3°C -169.5°F-111.9°C - 0.6 mph N1.0 kmh N 2.8 mph4.5 kmh 29.86 in1011.2 mb 0.00 in0.0 mm 0.00 in0.0 mm 0.00 in0.0 mm
04:36 AM 32.7°F0.4°C -169.5°F-111.9°C - 1.4 mph N2.3 kmh N 2.8 mph4.5 kmh 29.86 in1011.2 mb 0.00 in0.0 mm 0.00 in0.0 mm 0.00 in0.0 mm
04:51 AM 34.9°F1.6°C -169.3°F-111.8°C - 1.4 mph N2.3 kmh N 2.0 mph3.2 kmh 29.86 in1011.2 mb 0.00 in0.0 mm 0.00 in0.0 mm 0.00 in0.0 mm
05:06 AM 36.7°F2.6°C -169.1°F-111.7°C - 1.4 mph N2.3 kmh N 3.4 mph5.5 kmh 29.85 in1010.8 mb 0.00 in0.0 mm 0.00 in0.0 mm 0.00 in0.0 mm
05:21 AM 39.0°F3.9°C -168.9°F-111.6°C - 2.0 mph N3.2 kmh N 4.0 mph6.4 kmh 29.85 in1010.8 mb 0.00 in0.0 mm 0.00 in0.0 mm 0.00 in0.0 mm
05:36 AM 43.5°F6.4°C -168.4°F-111.3°C - 0.6 mph N1.0 kmh N 2.0 mph3.2 kmh 29.84 in1010.5 mb 0.00 in0.0 mm 0.00 in0.0 mm 0.00 in0.0 mm
05:51 AM 46.6°F8.1°C -168.1°F-111.2°C - 1.4 mph N2.3 kmh N 3.4 mph5.5 kmh 29.84 in1010.5 mb 0.00 in0.0 mm 0.00 in0.0 mm 0.00 in0.0 mm
06:06 AM 48.6°F9.2°C -167.9°F-111.1°C - 0.6 mph N1.0 kmh N 2.8 mph4.5 kmh 29.83 in1010.2 mb 0.00 in0.0 mm 0.00 in0.0 mm 0.00 in0.0 mm
06:21 AM 51.3°F10.7°C -167.7°F-110.9°C - 0.6 mph N1.0 kmh N 2.0 mph3.2 kmh 29.83 in1010.2 mb 0.00 in0.0 mm 0.00 in0.0 mm 0.00 in0.0 mm
06:36 AM 53.6°F12.0°C -167.4°F-110.8°C - 1.4 mph N2.3 kmh N 2.8 mph4.5 kmh 29.82 in1009.8 mb 0.00 in0.0 mm 0.00 in0.0 mm 0.00 in0.0 mm
06:51 AM 52.3°F11.3°C -167.6°F-110.9°C - 2.0 mph N3.2 kmh N 4.8 mph7.7 kmh 29.82 in1009.8 mb 0.00 in0.0 mm 0.00 in0.0 mm 0.00 in0.0 mm
07:06 AM 48.0°F8.9°C -168.0°F-111.1°C - 0.6 mph N1.0 kmh N 3.4 mph5.5 kmh 29.82 in1009.8 mb 0.00 in0.0 mm 0.00 in0.0 mm 0.00 in0.0 mm
07:21 AM 45.5°F7.5°C -168.3°F-111.3°C - 2.0 mph N3.2 kmh N 4.0 mph6.4 kmh 29.82 in1009.8 mb 0.00 in0.0 mm 0.00 in0.0 mm 0.00 in0.0 mm
07:36 AM 44.6°F7.0°C -168.3°F-111.3°C - 1.4 mph N2.3 kmh N 3.4 mph5.5 kmh 29.81 in1009.5 mb 0.00 in0.0 mm 0.00 in0.0 mm 0.00 in0.0 mm
07:51 AM 44.1°F6.7°C -168.4°F-111.3°C - 2.0 mph N3.2 kmh N 3.4 mph5.5 kmh 29.80 in1009.1 mb 0.00 in0.0 mm 0.00 in0.0 mm 0.00 in0.0 mm
08:06 AM 43.9°F6.6°C -168.4°F-111.3°C - 1.4 mph N2.3 kmh N 2.8 mph4.5 kmh 29.80 in1009.1 mb 0.00 in0.0 mm 0.00 in0.0 mm 0.00 in0.0 mm
08:21 AM 44.1°F6.7°C -168.4°F-111.3°C - 2.8 mph N4.5 kmh N 4.8 mph7.7 kmh 29.79 in1008.8 mb 0.00 in0.0 mm 0.00 in0.0 mm 0.00 in0.0 mm
08:36 AM 44.6°F7.0°C -168.3°F-111.3°C - 2.0 mph N3.2 kmh N 4.0 mph6.4 kmh 29.78 in1008.5 mb 0.00 in0.0 mm 0.00 in0.0 mm 0.00 in0.0 mm
08:51 AM 45.1°F7.3°C -168.3°F-111.3°C - 2.8 mph N4.5 kmh N 5.4 mph8.7 kmh 29.77 in1008.1 mb 0.00 in0.0 mm 0.00 in0.0 mm 0.00 in0.0 mm
09:06 AM 45.7°F7.6°C -168.2°F-111.2°C - 2.8 mph N4.5 kmh N 6.2 mph10.0 kmh 29.77 in1008.1 mb 0.00 in0.0 mm 0.00 in0.0 mm 0.00 in0.0 mm
09:21 AM 46.4°F8.0°C -168.2°F-111.2°C - 2.8 mph N4.5 kmh N 5.4 mph8.7 kmh 29.76 in1007.8 mb 0.00 in0.0 mm 0.00 in0.0 mm 0.00 in0.0 mm
09:36 AM 47.5°F8.6°C -168.1°F-111.2°C - 2.8 mph N4.5 kmh N 5.4 mph8.7 kmh 29.75 in1007.5 mb 0.00 in0.0 mm 0.00 in0.0 mm 0.00 in0.0 mm
09:51 AM 49.1°F9.5°C -167.9°F-111.1°C - 1.4 mph N2.3 kmh N 3.4 mph5.5 kmh 29.75 in1007.5 mb 0.00 in0.0 mm 0.00 in0.0 mm 0.00 in0.0 mm
10:06 AM 50.7°F10.4°C -167.7°F-110.9°C - 1.4 mph N2.3 kmh N 2.8 mph4.5 kmh 29.74 in1007.1 mb 0.00 in0.0 mm 0.00 in0.0 mm 0.00 in0.0 mm
10:21 AM 55.2°F12.9°C -167.3°F-110.7°C - 4.0 mph N6.4 kmh N 6.8 mph10.9 kmh 29.73 in1006.8 mb 0.00 in0.0 mm 0.00 in0.0 mm 0.00 in0.0 mm
10:36 AM 54.0°F12.2°C -167.4°F-110.8°C - 4.0 mph N6.4 kmh N 8.8 mph14.2 kmh 29.73 in1006.8 mb 0.00 in0.0 mm 0.00 in0.0 mm 0.00 in0.0 mm
10:51 AM 54.1°F12.3°C -167.4°F-110.8°C - 3.4 mph N5.5 kmh N 5.4 mph8.7 kmh 29.72 in1006.4 mb 0.00 in0.0 mm 0.00 in0.0 mm 0.00 in0.0 mm
11:06 AM 55.2°F12.9°C -167.3°F-110.7°C - 3.4 mph N5.5 kmh N 7.4 mph11.9 kmh 29.71 in1006.1 mb 0.00 in0.0 mm 0.00 in0.0 mm 0.00 in0.0 mm
11:21 AM 55.8°F13.2°C -167.2°F-110.7°C - 4.8 mph N7.7 kmh N 7.4 mph11.9 kmh 29.71 in1006.1 mb 0.00 in0.0 mm 0.00 in0.0 mm 0.00 in0.0 mm
11:36 AM 56.7°F13.7°C -167.1°F-110.6°C - 4.0 mph N6.4 kmh N 6.2 mph10.0 kmh 29.70 in1005.8 mb 0.00 in0.0 mm 0.00 in0.0 mm 0.00 in0.0 mm
11:51 AM 57.0°F13.9°C -167.1°F-110.6°C - 2.8 mph N4.5 kmh N 6.2 mph10.0 kmh 29.70 in1005.8 mb 0.00 in0.0 mm 0.00 in0.0 mm 0.00 in0.0 mm
12:06 PM 56.1°F13.4°C -167.2°F-110.7°C - 3.4 mph N5.5 kmh N 10.2 mph16.4 kmh 29.69 in1005.4 mb 0.00 in0.0 mm 0.00 in0.0 mm 0.00 in0.0 mm
12:21 PM 54.9°F12.7°C -167.3°F-110.7°C - 2.0 mph N3.2 kmh N 5.4 mph8.7 kmh 29.69 in1005.4 mb 0.00 in0.0 mm 0.00 in0.0 mm 0.00 in0.0 mm
12:36 PM 54.1°F12.3°C -167.4°F-110.8°C - 4.0 mph N6.4 kmh N 8.8 mph14.2 kmh 29.68 in1005.1 mb 0.00 in0.0 mm 0.00 in0.0 mm 0.00 in0.0 mm
12:51 PM 53.8°F12.1°C -167.4°F-110.8°C - 4.0 mph N6.4 kmh N 7.4 mph11.9 kmh 29.67 in1004.7 mb 0.00 in0.0 mm 0.00 in0.0 mm 0.00 in0.0 mm
01:06 PM 53.6°F12.0°C -167.4°F-110.8°C - 2.8 mph N4.5 kmh N 5.4 mph8.7 kmh 29.67 in1004.7 mb 0.00 in0.0 mm 0.00 in0.0 mm 0.00 in0.0 mm
01:21 PM 53.1°F11.7°C -167.5°F-110.8°C - 3.4 mph N5.5 kmh N 6.2 mph10.0 kmh 29.66 in1004.4 mb 0.00 in0.0 mm 0.00 in0.0 mm 0.00 in0.0 mm
01:36 PM 53.6°F12.0°C -167.4°F-110.8°C - 2.8 mph N4.5 kmh N 6.2 mph10.0 kmh 29.66 in1004.4 mb 0.00 in0.0 mm 0.00 in0.0 mm 0.00 in0.0 mm
01:51 PM 53.1°F11.7°C -167.5°F-110.8°C - 3.4 mph N5.5 kmh N 6.2 mph10.0 kmh 29.65 in1004.1 mb 0.00 in0.0 mm 0.00 in0.0 mm 0.00 in0.0 mm
02:06 PM 52.7°F11.5°C -167.5°F-110.8°C - 2.0 mph N3.2 kmh N 6.8 mph10.9 kmh 29.64 in1003.7 mb 0.00 in0.0 mm 0.00 in0.0 mm 0.00 in0.0 mm
02:21 PM 52.7°F11.5°C -167.5°F-110.8°C - 4.8 mph N7.7 kmh N 6.8 mph10.9 kmh 29.64 in1003.7 mb 0.00 in0.0 mm 0.00 in0.0 mm 0.00 in0.0 mm
02:36 PM 53.1°F11.7°C -167.5°F-110.8°C - 2.0 mph N3.2 kmh N 5.4 mph8.7 kmh 29.63 in1003.4 mb 0.00 in0.0 mm 0.00 in0.0 mm 0.00 in0.0 mm
02:51 PM 53.4°F11.9°C -167.5°F-110.8°C - 3.4 mph N5.5 kmh N 5.4 mph8.7 kmh 29.63 in1003.4 mb 0.00 in0.0 mm 0.00 in0.0 mm 0.00 in0.0 mm
03:06 PM 53.2°F11.8°C -167.5°F-110.8°C - 4.8 mph N7.7 kmh N 7.4 mph11.9 kmh 29.62 in1003.0 mb 0.00 in0.0 mm 0.00 in0.0 mm 0.00 in0.0 mm
03:21 PM 52.7°F11.5°C -167.5°F-110.8°C - 2.0 mph N3.2 kmh N 4.8 mph7.7 kmh 29.62 in1003.0 mb 0.00 in0.0 mm 0.00 in0.0 mm 0.00 in0.0 mm
03:36 PM 53.2°F11.8°C -167.5°F-110.8°C - 3.4 mph N5.5 kmh N 6.2 mph10.0 kmh 29.61 in1002.7 mb 0.00 in0.0 mm 0.00 in0.0 mm 0.00 in0.0 mm
03:51 PM 52.9°F11.6°C -167.5°F-110.8°C - 2.8 mph N4.5 kmh N 4.8 mph7.7 kmh 29.61 in1002.7 mb 0.00 in0.0 mm 0.00 in0.0 mm 0.00 in0.0 mm
04:06 PM 52.9°F11.6°C -167.5°F-110.8°C - 3.4 mph N5.5 kmh N 7.4 mph11.9 kmh 29.60 in1002.4 mb 0.00 in0.0 mm 0.00 in0.0 mm 0.00 in0.0 mm
04:21 PM 52.9°F11.6°C -167.5°F-110.8°C - 2.8 mph N4.5 kmh N 6.2 mph10.0 kmh 29.60 in1002.4 mb 0.00 in0.0 mm 0.00 in0.0 mm 0.00 in0.0 mm
04:36 PM 52.3°F11.3°C -167.6°F-110.9°C - 1.4 mph N2.3 kmh N 4.0 mph6.4 kmh 29.59 in1002.0 mb 0.00 in0.0 mm 0.00 in0.0 mm 0.00 in0.0 mm
04:51 PM 52.5°F11.4°C -167.5°F-110.8°C - 2.8 mph N4.5 kmh N 5.4 mph8.7 kmh 29.59 in1002.0 mb 0.00 in0.0 mm 0.00 in0.0 mm 0.00 in0.0 mm
05:06 PM 52.3°F11.3°C -167.6°F-110.9°C - 4.0 mph N6.4 kmh N 7.4 mph11.9 kmh 29.58 in1001.7 mb 0.00 in0.0 mm 0.00 in0.0 mm 0.00 in0.0 mm
05:21 PM 52.2°F11.2°C -167.6°F-110.9°C - 3.4 mph N5.5 kmh N 5.4 mph8.7 kmh 29.58 in1001.7 mb 0.00 in0.0 mm 0.00 in0.0 mm 0.00 in0.0 mm
05:36 PM 52.2°F11.2°C -167.6°F-110.9°C - 2.0 mph N3.2 kmh N 4.0 mph6.4 kmh 29.58 in1001.7 mb 0.00 in0.0 mm 0.00 in0.0 mm 0.00 in0.0 mm
05:51 PM 52.0°F11.1°C -167.6°F-110.9°C - 2.0 mph N3.2 kmh N 4.8 mph7.7 kmh 29.58 in1001.7 mb 0.00 in0.0 mm 0.00 in0.0 mm 0.00 in0.0 mm
06:06 PM 51.6°F10.9°C -167.6°F-110.9°C - 2.8 mph N4.5 kmh N 5.4 mph8.7 kmh 29.57 in1001.4 mb 0.00 in0.0 mm 0.00 in0.0 mm 0.00 in0.0 mm
06:21 PM 51.6°F10.9°C -167.6°F-110.9°C - 1.4 mph N2.3 kmh N 3.4 mph5.5 kmh 29.57 in1001.4 mb 0.00 in0.0 mm 0.00 in0.0 mm 0.00 in0.0 mm
06:36 PM 51.4°F10.8°C -167.7°F-110.9°C - 2.8 mph N4.5 kmh N 6.2 mph10.0 kmh 29.56 in1001.0 mb 0.00 in0.0 mm 0.00 in0.0 mm 0.00 in0.0 mm
06:51 PM 51.3°F10.7°C -167.7°F-110.9°C - 2.0 mph N3.2 kmh N 5.4 mph8.7 kmh 29.56 in1001.0 mb 0.00 in0.0 mm 0.00 in0.0 mm 0.00 in0.0 mm
07:06 PM 51.3°F10.7°C -167.7°F-110.9°C - 3.4 mph N5.5 kmh N 6.2 mph10.0 kmh 29.56 in1001.0 mb 0.00 in0.0 mm 0.00 in0.0 mm 0.00 in0.0 mm
07:21 PM 50.7°F10.4°C -167.7°F-110.9°C - 2.8 mph N4.5 kmh N 5.4 mph8.7 kmh 29.55 in1000.7 mb 0.00 in0.0 mm 0.00 in0.0 mm 0.00 in0.0 mm
07:36 PM 50.5°F10.3°C -167.7°F-110.9°C - 2.8 mph N4.5 kmh N 6.2 mph10.0 kmh 29.55 in1000.7 mb 0.00 in0.0 mm 0.00 in0.0 mm 0.00 in0.0 mm
07:51 PM 50.0°F10.0°C -167.8°F-111.0°C - 0.6 mph N1.0 kmh N 3.4 mph5.5 kmh 29.55 in1000.7 mb 0.00 in0.0 mm 0.00 in0.0 mm 0.00 in0.0 mm
08:06 PM 50.0°F10.0°C -167.8°F-111.0°C - 2.0 mph N3.2 kmh N 4.0 mph6.4 kmh 29.55 in1000.7 mb 0.00 in0.0 mm 0.00 in0.0 mm 0.00 in0.0 mm
08:21 PM 49.6°F9.8°C -167.8°F-111.0°C - 2.8 mph N4.5 kmh N 5.4 mph8.7 kmh 29.53 in1000.0 mb 0.00 in0.0 mm 0.00 in0.0 mm 0.00 in0.0 mm
08:36 PM 49.6°F9.8°C -167.8°F-111.0°C - 2.0 mph N3.2 kmh N 4.8 mph7.7 kmh 29.53 in1000.0 mb 0.00 in0.0 mm 0.00 in0.0 mm 0.00 in0.0 mm
08:51 PM 49.6°F9.8°C -167.8°F-111.0°C - 2.0 mph N3.2 kmh N 4.0 mph6.4 kmh 29.52 in999.7 mb 0.00 in0.0 mm 0.00 in0.0 mm 0.00 in0.0 mm
09:06 PM 49.6°F9.8°C -167.8°F-111.0°C - 2.0 mph N3.2 kmh N 4.8 mph7.7 kmh 29.52 in999.7 mb 0.00 in0.0 mm 0.00 in0.0 mm 0.00 in0.0 mm
09:21 PM 49.6°F9.8°C -167.8°F-111.0°C - 2.0 mph N3.2 kmh N 4.0 mph6.4 kmh 29.50 in999.0 mb 0.00 in0.0 mm 0.00 in0.0 mm 0.00 in0.0 mm
09:36 PM 49.8°F9.9°C -167.8°F-111.0°C - 2.8 mph N4.5 kmh N 5.4 mph8.7 kmh 29.49 in998.6 mb 0.00 in0.0 mm 0.00 in0.0 mm 0.00 in0.0 mm
09:51 PM 50.0°F10.0°C -167.8°F-111.0°C - 3.4 mph N5.5 kmh N 5.4 mph8.7 kmh 29.48 in998.3 mb 0.00 in0.0 mm 0.00 in0.0 mm 0.00 in0.0 mm
10:06 PM 50.2°F10.1°C -167.8°F-111.0°C - 2.8 mph N4.5 kmh N 4.8 mph7.7 kmh 29.47 in998.0 mb 0.00 in0.0 mm 0.00 in0.0 mm 0.00 in0.0 mm
10:21 PM 50.5°F10.3°C -167.7°F-110.9°C - 2.8 mph N4.5 kmh N 4.8 mph7.7 kmh 29.46 in997.6 mb 0.00 in0.0 mm 0.00 in0.0 mm 0.00 in0.0 mm
10:36 PM 50.5°F10.3°C -167.7°F-110.9°C - 4.0 mph N6.4 kmh N 6.8 mph10.9 kmh 29.46 in997.6 mb 0.00 in0.0 mm 0.00 in0.0 mm 0.00 in0.0 mm
10:51 PM 50.7°F10.4°C -167.7°F-110.9°C - 3.4 mph N5.5 kmh N 5.4 mph8.7 kmh 29.45 in997.3 mb 0.00 in0.0 mm 0.00 in0.0 mm 0.00 in0.0 mm
11:06 PM 50.5°F10.3°C -167.7°F-110.9°C - 4.0 mph N6.4 kmh N 7.4 mph11.9 kmh 29.44 in997.0 mb 0.00 in0.0 mm 0.00 in0.0 mm 0.00 in0.0 mm
11:21 PM 50.9°F10.5°C -167.7°F-110.9°C - 3.4 mph N5.5 kmh N 4.8 mph7.7 kmh 29.44 in997.0 mb 0.00 in0.0 mm 0.00 in0.0 mm 0.00 in0.0 mm
11:36 PM 50.7°F10.4°C -167.7°F-110.9°C - 3.4 mph N5.5 kmh N 5.4 mph8.7 kmh 29.43 in996.6 mb 0.00 in0.0 mm 0.00 in0.0 mm 0.00 in0.0 mm
11:51 PM 50.5°F10.3°C -167.7°F-110.9°C - 3.4 mph N5.5 kmh N 7.4 mph11.9 kmh 29.41 in995.9 mb 0.00 in0.0 mm 0.00 in0.0 mm 0.00 in0.0 mm